createdAt,value
2019-03-03T00:01:14.039Z,7.00
2019-03-03T00:03:43.346Z,7.00
2019-03-03T00:06:12.754Z,7.00
2019-03-03T00:08:41.981Z,7.00
2019-03-03T00:11:11.216Z,7.00
2019-03-03T00:13:40.433Z,6.90
2019-03-03T00:16:09.752Z,7.00
2019-03-03T00:18:39.077Z,6.90
2019-03-03T00:21:08.340Z,7.00
2019-03-03T00:23:37.578Z,6.90
2019-03-03T00:26:06.799Z,6.90
2019-03-03T00:28:36.098Z,6.90
2019-03-03T00:31:05.303Z,6.90
2019-03-03T00:33:34.617Z,6.90
2019-03-03T00:36:03.827Z,6.90
2019-03-03T00:38:46.355Z,6.90
2019-03-03T00:41:34.600Z,6.90
2019-03-03T00:44:19.155Z,6.90
2019-03-03T00:47:07.364Z,6.90
2019-03-03T00:50:10.755Z,6.90
2019-03-03T00:52:54.343Z,6.90
2019-03-03T00:55:42.156Z,6.90
2019-03-03T00:58:33.384Z,6.90
2019-03-03T01:01:20.832Z,6.90
2019-03-03T01:04:18.159Z,6.80
2019-03-03T01:06:59.232Z,6.80
2019-03-03T01:09:47.389Z,6.80
2019-03-03T01:12:34.799Z,6.80
2019-03-03T01:15:11.985Z,6.80
2019-03-03T01:17:53.163Z,6.80
2019-03-03T01:20:31.165Z,6.80
2019-03-03T01:23:29.349Z,6.80
2019-03-03T01:25:58.528Z,6.90
2019-03-03T01:28:27.707Z,7.00
2019-03-03T01:30:57.001Z,6.90
2019-03-03T01:33:26.263Z,7.00
2019-03-03T01:35:55.545Z,7.00
2019-03-03T01:38:24.805Z,7.00
2019-03-03T01:40:54.353Z,7.00
2019-03-03T01:43:23.620Z,7.00
2019-03-03T01:45:53.040Z,7.00
2019-03-03T01:48:22.205Z,7.00
2019-03-03T01:50:51.451Z,7.00
2019-03-03T01:53:20.735Z,7.00
2019-03-03T01:55:50.029Z,7.10
2019-03-03T01:58:19.211Z,7.10
2019-03-03T02:00:48.381Z,7.10
2019-03-03T02:03:17.543Z,7.10
2019-03-03T02:05:46.835Z,7.10
2019-03-03T02:08:16.096Z,7.10
2019-03-03T02:10:45.536Z,7.10
2019-03-03T02:13:14.816Z,7.10
2019-03-03T02:15:44.158Z,7.10
2019-03-03T02:18:13.411Z,7.20
2019-03-03T02:20:42.636Z,7.20
2019-03-03T02:23:11.779Z,7.20
2019-03-03T02:25:40.921Z,7.20
2019-03-03T02:28:10.166Z,7.20
2019-03-03T02:30:39.347Z,7.20
2019-03-03T02:33:08.611Z,7.20
2019-03-03T02:35:37.830Z,7.20
2019-03-03T02:38:07.078Z,7.20
2019-03-03T02:40:36.295Z,7.20
2019-03-03T02:43:05.551Z,7.20
2019-03-03T02:45:34.806Z,7.20
2019-03-03T02:48:04.140Z,7.20
2019-03-03T02:50:33.502Z,7.20
2019-03-03T02:53:02.813Z,7.20
2019-03-03T02:55:32.088Z,7.20
2019-03-03T02:58:01.285Z,7.20
2019-03-03T03:00:30.521Z,7.20
2019-03-03T03:03:00.942Z,7.20
2019-03-03T03:05:45.116Z,7.20
2019-03-03T03:08:18.498Z,7.20
2019-03-03T03:11:22.132Z,7.20
2019-03-03T03:14:06.479Z,7.20
2019-03-03T03:16:54.175Z,7.30
2019-03-03T03:19:37.788Z,7.20
2019-03-03T03:22:35.103Z,7.20
2019-03-03T03:25:15.729Z,7.20
2019-03-03T03:28:02.338Z,7.20
2019-03-03T03:30:38.272Z,7.20
2019-03-03T03:33:15.810Z,7.20
2019-03-03T03:36:16.215Z,7.20
2019-03-03T03:39:00.991Z,7.20
2019-03-03T03:41:49.224Z,7.20
2019-03-03T03:44:37.498Z,7.30
2019-03-03T03:47:16.784Z,7.30
2019-03-03T03:49:54.852Z,7.30
2019-03-03T03:52:34.225Z,7.30
2019-03-03T03:55:37.657Z,7.30
2019-03-03T03:58:28.673Z,7.30
2019-03-03T04:01:22.715Z,7.30
2019-03-03T04:04:03.280Z,7.30
2019-03-03T04:06:50.159Z,7.30
2019-03-03T04:09:26.805Z,7.30
2019-03-03T04:12:23.885Z,7.30
2019-03-03T04:15:10.707Z,7.30
2019-03-03T04:17:48.861Z,7.30
2019-03-03T04:20:33.525Z,7.30
2019-03-03T04:23:31.062Z,7.30
2019-03-03T04:26:25.327Z,7.30
2019-03-03T04:29:25.853Z,7.30
2019-03-03T04:32:08.811Z,7.30
2019-03-03T04:34:48.331Z,7.30
2019-03-03T04:37:26.881Z,7.30
2019-03-03T04:40:15.125Z,7.30
2019-03-03T04:43:09.160Z,7.30
2019-03-03T04:45:45.727Z,7.30
2019-03-03T04:48:32.973Z,7.30
2019-03-03T04:51:23.965Z,7.30
2019-03-03T04:54:24.219Z,7.30
2019-03-03T04:56:59.735Z,7.30
2019-03-03T04:59:49.233Z,7.40
2019-03-03T05:02:25.279Z,7.40
2019-03-03T05:05:11.823Z,7.40
2019-03-03T05:08:05.883Z,7.40
2019-03-03T05:10:48.388Z,7.40
2019-03-03T05:13:22.513Z,7.40
2019-03-03T05:16:19.748Z,7.50
2019-03-03T05:19:14.075Z,7.50
2019-03-03T05:21:43.366Z,7.50
2019-03-03T05:24:12.519Z,7.40
2019-03-03T05:26:41.735Z,7.50
2019-03-03T05:29:10.954Z,7.50
2019-03-03T05:31:40.103Z,7.40
2019-03-03T05:34:09.273Z,7.50
2019-03-03T05:36:38.501Z,7.40
2019-03-03T05:39:07.873Z,7.50
2019-03-03T05:41:37.012Z,7.50
2019-03-03T05:44:06.243Z,7.50
2019-03-03T05:46:35.555Z,7.50
2019-03-03T05:49:04.691Z,7.50
2019-03-03T05:51:34.015Z,7.50
2019-03-03T05:54:03.296Z,7.50
2019-03-03T05:56:32.611Z,7.50
2019-03-03T05:59:01.913Z,7.50
2019-03-03T06:01:31.095Z,7.50
2019-03-03T06:04:00.263Z,7.50
2019-03-03T06:06:29.395Z,7.50
2019-03-03T06:08:58.561Z,7.50
2019-03-03T06:11:27.807Z,7.50
2019-03-03T06:13:56.994Z,7.50
2019-03-03T06:16:26.242Z,7.60
2019-03-03T06:18:55.536Z,7.50
2019-03-03T06:21:24.787Z,7.50
2019-03-03T06:23:54.100Z,7.50
2019-03-03T06:26:23.408Z,7.60
2019-03-03T06:28:52.706Z,7.60
2019-03-03T06:31:21.931Z,7.60
2019-03-03T06:33:51.099Z,7.70
2019-03-03T06:36:20.327Z,7.70
2019-03-03T06:38:49.482Z,7.70
2019-03-03T06:41:18.708Z,7.70
2019-03-03T06:43:47.872Z,7.80
2019-03-03T06:46:17.106Z,7.80
2019-03-03T06:48:46.287Z,7.90
2019-03-03T06:51:15.571Z,7.90
2019-03-03T06:53:44.831Z,7.90
2019-03-03T06:56:14.090Z,7.90
2019-03-03T06:58:43.283Z,8.10
2019-03-03T07:01:12.548Z,9.10
2019-03-03T07:03:41.784Z,10.00
2019-03-03T07:06:11.054Z,10.90
2019-03-03T07:08:40.283Z,11.90
2019-03-03T07:11:10.152Z,12.50
2019-03-03T07:13:39.874Z,12.90
2019-03-03T07:16:09.131Z,13.80
2019-03-03T07:18:38.366Z,13.90
2019-03-03T07:21:07.652Z,14.40
2019-03-03T07:23:36.827Z,14.60
2019-03-03T07:26:06.112Z,14.40
2019-03-03T07:28:35.387Z,14.00
2019-03-03T07:31:04.605Z,13.50
2019-03-03T07:33:35.732Z,12.70
2019-03-03T07:36:04.914Z,12.30
2019-03-03T07:38:34.173Z,12.00
2019-03-03T07:41:03.415Z,11.90
2019-03-03T07:43:32.579Z,12.00
2019-03-03T07:46:01.824Z,11.70
2019-03-03T07:48:31.072Z,12.00
2019-03-03T07:51:00.343Z,12.20
2019-03-03T07:53:29.551Z,12.60
2019-03-03T07:55:58.780Z,12.80
2019-03-03T07:58:28.070Z,13.00
2019-03-03T08:00:57.392Z,13.20
2019-03-03T08:03:26.755Z,13.80
2019-03-03T08:05:56.173Z,14.00
2019-03-03T08:08:25.500Z,13.90
2019-03-03T08:10:54.825Z,13.90
2019-03-03T08:13:24.222Z,14.20
2019-03-03T08:15:53.374Z,14.10
2019-03-03T08:18:22.556Z,14.20
2019-03-03T08:20:51.726Z,14.40
2019-03-03T08:23:21.953Z,14.80
2019-03-03T08:25:51.153Z,14.90
2019-03-03T08:28:20.390Z,15.60
2019-03-03T08:30:49.666Z,15.10
2019-03-03T08:33:18.929Z,15.20
2019-03-03T08:35:48.156Z,14.60
2019-03-03T08:38:17.590Z,14.10
2019-03-03T08:40:46.892Z,13.40
2019-03-03T08:43:35.096Z,12.90
2019-03-03T08:46:38.538Z,12.20
2019-03-03T08:49:19.226Z,11.80
2019-03-03T08:52:02.910Z,11.70
2019-03-03T08:54:58.441Z,11.70
2019-03-03T08:57:45.034Z,11.50
2019-03-03T09:00:27.490Z,11.50
2019-03-03T09:03:33.498Z,11.30
2019-03-03T09:06:24.512Z,11.30
2019-03-03T09:09:15.491Z,11.50
2019-03-03T09:12:18.968Z,11.50
2019-03-03T09:15:12.730Z,11.50
2019-03-03T09:18:06.782Z,11.70
2019-03-03T09:20:57.743Z,11.80
2019-03-03T09:24:04.410Z,12.10
2019-03-03T09:26:52.686Z,12.10
2019-03-03T09:29:43.188Z,12.20
2019-03-03T09:32:24.913Z,12.00
2019-03-03T09:35:14.420Z,12.40
2019-03-03T09:38:02.660Z,12.60
2019-03-03T09:40:38.265Z,12.70
2019-03-03T09:43:26.512Z,13.10
2019-03-03T09:46:13.842Z,13.20
2019-03-03T09:49:11.882Z,13.50
2019-03-03T09:52:00.120Z,14.20
2019-03-03T09:54:43.793Z,14.60
2019-03-03T09:57:34.244Z,15.30
2019-03-03T10:00:19.848Z,15.90
2019-03-03T10:03:06.072Z,16.90
2019-03-03T10:06:00.476Z,17.80
2019-03-03T10:08:45.222Z,17.30
2019-03-03T10:11:33.951Z,18.00
2019-03-03T10:14:20.970Z,18.80
2019-03-03T10:16:58.008Z,19.40
2019-03-03T10:19:58.588Z,19.80
2019-03-03T10:22:45.836Z,19.60
2019-03-03T10:25:28.410Z,19.70
2019-03-03T10:28:19.634Z,19.80
2019-03-03T10:30:58.563Z,19.50
2019-03-03T10:33:41.862Z,19.60
2019-03-03T10:36:28.998Z,19.00
2019-03-03T10:39:13.653Z,18.70
2019-03-03T10:42:00.862Z,18.70
2019-03-03T10:44:42.207Z,19.00
2019-03-03T10:47:17.384Z,19.10
2019-03-03T10:50:02.265Z,19.10
2019-03-03T10:53:00.698Z,18.90
2019-03-03T10:55:35.044Z,18.50
2019-03-03T10:58:16.937Z,18.00
2019-03-03T11:01:04.124Z,17.60
2019-03-03T11:03:47.514Z,18.30
2019-03-03T11:06:34.691Z,19.10
2019-03-03T11:09:19.916Z,19.00
2019-03-03T11:12:08.122Z,19.00
2019-03-03T11:14:49.228Z,18.80
2019-03-03T11:17:36.465Z,18.90
2019-03-03T11:20:12.796Z,18.70
2019-03-03T11:23:01.136Z,18.30
2019-03-03T11:25:52.526Z,17.70
2019-03-03T11:28:32.280Z,17.30
2019-03-03T11:31:14.150Z,17.30
2019-03-03T11:34:05.552Z,17.00
2019-03-03T11:36:38.706Z,17.00
2019-03-03T11:39:22.065Z,17.00
2019-03-03T11:42:00.242Z,16.90
2019-03-03T11:44:57.400Z,17.20
2019-03-03T11:47:44.645Z,17.30
2019-03-03T11:50:36.000Z,17.40
2019-03-03T11:53:43.159Z,17.60
2019-03-03T11:56:26.274Z,17.40
2019-03-03T11:59:26.508Z,17.00
2019-03-03T12:02:21.758Z,17.10
2019-03-03T12:05:03.721Z,18.20
2019-03-03T12:07:54.728Z,18.30
2019-03-03T12:10:43.436Z,18.30
2019-03-03T12:13:30.446Z,18.40
2019-03-03T12:16:21.757Z,18.10
2019-03-03T12:19:22.404Z,18.80
2019-03-03T12:22:07.188Z,18.90
2019-03-03T12:25:10.814Z,18.50
2019-03-03T12:27:57.813Z,17.70
2019-03-03T12:30:57.774Z,17.10
2019-03-03T12:33:46.442Z,17.00
2019-03-03T12:36:30.224Z,17.70
2019-03-03T12:39:09.147Z,17.80
2019-03-03T12:41:50.197Z,17.60
2019-03-03T12:44:38.506Z,17.50
2019-03-03T12:47:29.615Z,17.50
2019-03-03T12:50:17.982Z,16.70
2019-03-03T12:53:09.889Z,16.70
2019-03-03T12:56:10.574Z,16.30
2019-03-03T12:58:49.402Z,16.00
2019-03-03T13:01:31.972Z,15.50
2019-03-03T13:04:15.354Z,15.30
2019-03-03T13:07:02.261Z,15.00
2019-03-03T13:09:53.040Z,14.90
2019-03-03T13:12:53.205Z,14.90
2019-03-03T13:15:50.502Z,14.80
2019-03-03T13:18:44.560Z,14.80
2019-03-03T13:21:39.179Z,14.90
2019-03-03T13:24:26.345Z,15.00
2019-03-03T13:27:14.745Z,15.00
2019-03-03T13:30:12.044Z,15.10
2019-03-03T13:33:00.294Z,15.10
2019-03-03T13:35:54.432Z,15.10
2019-03-03T13:38:45.704Z,14.80
2019-03-03T13:41:24.274Z,14.90
2019-03-03T13:43:53.471Z,14.70
2019-03-03T13:46:22.907Z,14.70
2019-03-03T13:48:52.282Z,14.70
2019-03-03T13:51:21.619Z,14.80
2019-03-03T13:53:50.923Z,14.70
2019-03-03T13:56:20.404Z,14.80
2019-03-03T13:58:49.643Z,14.80
2019-03-03T14:01:20.223Z,14.80
2019-03-03T14:03:49.492Z,14.70
2019-03-03T14:06:18.748Z,14.80
2019-03-03T14:08:47.998Z,14.90
2019-03-03T14:11:26.885Z,14.90
2019-03-03T14:13:59.615Z,15.00
2019-03-03T14:16:28.872Z,14.90
2019-03-03T14:18:58.111Z,14.90
2019-03-03T14:21:28.673Z,15.00
2019-03-03T14:23:58.692Z,14.80
2019-03-03T14:26:29.730Z,14.80
2019-03-03T14:28:59.346Z,14.90
2019-03-03T14:31:28.608Z,14.80
2019-03-03T14:33:57.982Z,14.70
2019-03-03T14:36:27.170Z,14.70
2019-03-03T14:38:57.539Z,14.50
2019-03-03T14:41:26.817Z,14.30
2019-03-03T14:43:56.145Z,14.20
2019-03-03T14:46:26.006Z,14.20
2019-03-03T14:48:55.187Z,14.20
2019-03-03T14:51:24.409Z,14.20
2019-03-03T14:53:53.721Z,14.20
2019-03-03T14:56:23.015Z,14.10
2019-03-03T14:58:52.266Z,14.10
2019-03-03T15:01:21.525Z,14.10
2019-03-03T15:03:50.769Z,14.10
2019-03-03T15:06:24.414Z,14.00
2019-03-03T15:08:51.901Z,13.90
2019-03-03T15:11:21.476Z,13.80
2019-03-03T15:13:50.756Z,13.90
2019-03-03T15:16:20.694Z,13.90
2019-03-03T15:18:49.942Z,13.90
2019-03-03T15:21:25.121Z,13.90
2019-03-03T15:23:50.031Z,13.80
2019-03-03T15:26:19.311Z,13.80
2019-03-03T15:28:49.239Z,13.70
2019-03-03T15:31:18.546Z,13.70
2019-03-03T15:33:47.777Z,13.60
2019-03-03T15:36:17.048Z,13.50
2019-03-03T15:38:46.307Z,13.50
2019-03-03T15:41:15.609Z,13.50
2019-03-03T15:43:44.900Z,13.40
2019-03-03T15:46:14.080Z,13.30
2019-03-03T15:48:43.414Z,13.30
2019-03-03T15:51:12.763Z,13.30
2019-03-03T15:53:42.188Z,13.30
2019-03-03T15:56:11.479Z,13.30
2019-03-03T15:58:40.752Z,13.30
2019-03-03T16:01:15.075Z,13.20
2019-03-03T16:03:44.421Z,13.20
2019-03-03T16:06:13.834Z,13.10
2019-03-03T16:08:43.040Z,13.10
2019-03-03T16:11:12.377Z,13.00
2019-03-03T16:13:41.645Z,12.90
2019-03-03T16:16:11.326Z,12.90
2019-03-03T16:18:40.567Z,12.80
2019-03-03T16:21:09.832Z,12.80
2019-03-03T16:23:39.115Z,12.70
2019-03-03T16:26:08.289Z,12.70
2019-03-03T16:28:37.591Z,12.60
2019-03-03T16:31:06.872Z,12.50
2019-03-03T16:33:36.217Z,12.50
2019-03-03T16:36:05.629Z,12.40
2019-03-03T16:38:34.879Z,12.30
2019-03-03T16:41:04.097Z,12.30
2019-03-03T16:43:33.357Z,12.20
2019-03-03T16:46:02.726Z,12.20
2019-03-03T16:48:31.942Z,12.20
2019-03-03T16:51:01.129Z,12.20
2019-03-03T16:53:30.349Z,12.10
2019-03-03T16:55:59.609Z,12.10
2019-03-03T16:58:28.934Z,12.00
2019-03-03T17:00:58.150Z,12.00
2019-03-03T17:03:27.368Z,11.90
2019-03-03T17:05:56.593Z,11.90
2019-03-03T17:08:25.880Z,11.80
2019-03-03T17:10:55.259Z,11.80
2019-03-03T17:13:24.488Z,11.70
2019-03-03T17:15:53.683Z,11.60
2019-03-03T17:18:22.988Z,11.50
2019-03-03T17:20:52.302Z,11.40
2019-03-03T17:23:21.583Z,11.40
2019-03-03T17:25:50.731Z,11.40
2019-03-03T17:28:20.061Z,11.40
2019-03-03T17:30:49.361Z,11.40
2019-03-03T17:33:18.626Z,11.30
2019-03-03T17:35:47.855Z,11.30
2019-03-03T17:38:17.149Z,11.40
2019-03-03T17:40:46.416Z,11.40
2019-03-03T17:43:15.712Z,11.40
2019-03-03T17:45:45.030Z,11.40
2019-03-03T17:48:14.288Z,11.30
2019-03-03T17:50:43.661Z,11.30
2019-03-03T17:53:12.986Z,11.30
2019-03-03T17:55:42.264Z,11.30
2019-03-03T17:58:11.597Z,11.30
2019-03-03T18:00:43.215Z,11.30
2019-03-03T18:03:12.460Z,11.30
2019-03-03T18:05:41.826Z,11.30
2019-03-03T18:08:11.076Z,11.40
2019-03-03T18:10:40.415Z,11.40
2019-03-03T18:13:12.701Z,11.40
2019-03-03T18:15:41.946Z,11.40
2019-03-03T18:18:11.207Z,11.40
2019-03-03T18:20:40.568Z,11.30
2019-03-03T18:23:09.835Z,11.30
2019-03-03T18:25:39.125Z,11.30
2019-03-03T18:28:08.325Z,11.30
2019-03-03T18:30:48.821Z,11.30
2019-03-03T18:33:18.035Z,11.30
2019-03-03T18:35:47.235Z,11.30
2019-03-03T18:38:16.603Z,11.30
2019-03-03T18:40:45.961Z,11.20
2019-03-03T18:43:15.191Z,11.10
2019-03-03T18:45:44.397Z,11.00
2019-03-03T18:48:13.939Z,11.00
2019-03-03T18:50:43.340Z,10.90
2019-03-03T18:53:12.751Z,10.80
2019-03-03T18:55:42.137Z,10.70
2019-03-03T18:58:11.427Z,10.70
2019-03-03T19:00:40.687Z,10.70
2019-03-03T19:03:10.187Z,10.70
2019-03-03T19:05:39.389Z,10.60
2019-03-03T19:08:08.689Z,10.60
2019-03-03T19:10:37.938Z,10.60
2019-03-03T19:13:12.030Z,10.70
2019-03-03T19:15:40.899Z,10.60
2019-03-03T19:18:10.146Z,10.70
2019-03-03T19:20:39.276Z,10.60
2019-03-03T19:23:08.549Z,10.60
2019-03-03T19:25:37.897Z,10.60
2019-03-03T19:28:07.114Z,10.60
2019-03-03T19:30:36.480Z,10.60
2019-03-03T19:33:18.588Z,10.60
2019-03-03T19:35:47.910Z,10.60
2019-03-03T19:38:17.249Z,10.60
2019-03-03T19:40:46.606Z,10.60
2019-03-03T19:43:15.961Z,10.60
2019-03-03T19:45:45.291Z,10.60
2019-03-03T19:48:14.540Z,10.60
2019-03-03T19:50:43.861Z,10.50
2019-03-03T19:53:13.148Z,10.50
2019-03-03T19:55:42.551Z,10.50
2019-03-03T19:58:12.007Z,10.50
2019-03-03T20:00:41.343Z,10.40
2019-03-03T20:03:10.636Z,10.40
2019-03-03T20:05:40.088Z,10.50
2019-03-03T20:08:09.376Z,10.40
2019-03-03T20:10:38.777Z,10.40
2019-03-03T20:13:08.067Z,10.40
2019-03-03T20:15:37.485Z,10.40
2019-03-03T20:18:08.011Z,10.40
2019-03-03T20:20:37.325Z,10.30
2019-03-03T20:23:06.707Z,10.30
2019-03-03T20:25:36.027Z,10.20
2019-03-03T20:28:05.416Z,10.20
2019-03-03T20:30:34.705Z,10.10
2019-03-03T20:33:04.145Z,10.00
2019-03-03T20:35:33.409Z,9.90
2019-03-03T20:38:02.664Z,9.80
2019-03-03T20:40:31.877Z,9.70
2019-03-03T20:43:01.175Z,9.50
2019-03-03T20:45:30.548Z,9.50
2019-03-03T20:48:00.024Z,9.50
2019-03-03T20:50:29.191Z,9.50
2019-03-03T20:52:58.473Z,9.40
2019-03-03T20:55:27.659Z,9.40
2019-03-03T20:57:56.967Z,9.40
2019-03-03T21:00:26.805Z,9.70
2019-03-03T21:02:56.281Z,9.60
2019-03-03T21:05:25.569Z,9.60
2019-03-03T21:07:55.096Z,9.50
2019-03-03T21:10:24.359Z,9.50
2019-03-03T21:12:53.616Z,9.50
2019-03-03T21:15:22.922Z,9.50
2019-03-03T21:17:52.074Z,9.50
2019-03-03T21:20:21.553Z,9.50
2019-03-03T21:22:51.058Z,9.50
2019-03-03T21:25:20.372Z,9.50
2019-03-03T21:27:49.570Z,9.40
2019-03-03T21:30:20.979Z,9.40
2019-03-03T21:32:50.599Z,9.40
2019-03-03T21:35:19.875Z,9.40
2019-03-03T21:37:49.326Z,9.30
2019-03-03T21:40:18.958Z,9.20
2019-03-03T21:42:48.233Z,9.20
2019-03-03T21:45:18.970Z,9.20
2019-03-03T21:47:48.150Z,9.20
2019-03-03T21:50:19.918Z,9.10
2019-03-03T21:52:49.140Z,9.20
2019-03-03T21:55:18.382Z,9.10
2019-03-03T21:57:47.674Z,9.10
2019-03-03T22:00:26.850Z,9.10
2019-03-03T22:02:56.040Z,9.10
2019-03-03T22:05:25.512Z,9.10
2019-03-03T22:07:54.757Z,9.10
2019-03-03T22:10:30.512Z,9.10
2019-03-03T22:13:13.080Z,9.00
2019-03-03T22:15:42.483Z,9.00
2019-03-03T22:18:11.769Z,8.90
2019-03-03T22:20:41.110Z,8.90
2019-03-03T22:23:10.396Z,8.90
2019-03-03T22:25:39.586Z,8.90
2019-03-03T22:28:08.906Z,8.90
2019-03-03T22:30:38.103Z,8.90
2019-03-03T22:33:07.366Z,8.90
2019-03-03T22:35:36.660Z,8.90
2019-03-03T22:38:05.905Z,8.80
2019-03-03T22:40:35.057Z,8.80
2019-03-03T22:43:04.355Z,8.80
2019-03-03T22:45:33.528Z,8.80
2019-03-03T22:48:02.736Z,8.80
2019-03-03T22:50:32.014Z,8.70
2019-03-03T22:53:01.192Z,8.70
2019-03-03T22:55:35.421Z,8.70
2019-03-03T22:58:04.688Z,8.70
2019-03-03T23:00:50.190Z,8.70
2019-03-03T23:03:26.265Z,8.60
2019-03-03T23:06:27.062Z,8.60
2019-03-03T23:09:19.614Z,8.60
2019-03-03T23:11:54.591Z,8.60
2019-03-03T23:14:29.802Z,8.60
2019-03-03T23:17:46.014Z,8.60
2019-03-03T23:20:39.214Z,8.60
2019-03-03T23:23:47.522Z,8.60
2019-03-03T23:26:17.099Z,8.60
2019-03-03T23:28:46.406Z,8.60
2019-03-03T23:31:15.727Z,8.60
2019-03-03T23:33:44.937Z,8.60
2019-03-03T23:36:14.168Z,8.60
2019-03-03T23:38:43.497Z,8.60
2019-03-03T23:41:12.839Z,8.70
2019-03-03T23:43:42.078Z,8.70
2019-03-03T23:46:11.317Z,8.80
2019-03-03T23:48:40.578Z,8.70
2019-03-03T23:51:09.891Z,8.70
2019-03-03T23:53:39.184Z,8.70
2019-03-03T23:56:08.436Z,8.70
2019-03-03T23:58:37.617Z,8.60
